sensor_id;sensor_type;location;lat;lon;timestamp;P1;durP1;ratioP1;P2;durP2;ratioP2
16426;SDS011;8322;-33.900;151.170;2023-05-02T00:01:23;4.70;;;2.22;;
16426;SDS011;8322;-33.900;151.170;2023-05-02T00:03:53;6.70;;;2.08;;
16426;SDS011;8322;-33.900;151.170;2023-05-02T00:06:25;3.53;;;1.70;;
16426;SDS011;8322;-33.900;151.170;2023-05-02T00:08:56;3.72;;;1.90;;
16426;SDS011;8322;-33.900;151.170;2023-05-02T00:11:27;3.00;;;1.83;;
16426;SDS011;8322;-33.900;151.170;2023-05-02T00:13:59;3.17;;;1.70;;
16426;SDS011;8322;-33.900;151.170;2023-05-02T00:16:29;8.13;;;2.45;;
16426;SDS011;8322;-33.900;151.170;2023-05-02T00:18:58;3.03;;;1.70;;
16426;SDS011;8322;-33.900;151.170;2023-05-02T00:21:28;2.65;;;1.80;;
16426;SDS011;8322;-33.900;151.170;2023-05-02T00:23:57;2.40;;;1.60;;
16426;SDS011;8322;-33.900;151.170;2023-05-02T00:26:29;2.13;;;1.73;;
16426;SDS011;8322;-33.900;151.170;2023-05-02T00:28:58;2.58;;;1.60;;
16426;SDS011;8322;-33.900;151.170;2023-05-02T00:31:28;2.97;;;1.65;;
16426;SDS011;8322;-33.900;151.170;2023-05-02T00:33:57;2.60;;;1.80;;
16426;SDS011;8322;-33.900;151.170;2023-05-02T00:36:27;4.32;;;1.60;;
16426;SDS011;8322;-33.900;151.170;2023-05-02T00:38:56;1.88;;;1.40;;
16426;SDS011;8322;-33.900;151.170;2023-05-02T00:41:26;1.63;;;1.50;;
16426;SDS011;8322;-33.900;151.170;2023-05-02T00:43:57;3.10;;;1.70;;
16426;SDS011;8322;-33.900;151.170;2023-05-02T00:46:27;3.35;;;1.50;;
16426;SDS011;8322;-33.900;151.170;2023-05-02T00:48:56;1.35;;;1.25;;
16426;SDS011;8322;-33.900;151.170;2023-05-02T00:51:26;1.50;;;1.40;;
16426;SDS011;8322;-33.900;151.170;2023-05-02T00:53:55;1.48;;;1.38;;
16426;SDS011;8322;-33.900;151.170;2023-05-02T00:56:25;1.27;;;1.17;;
16426;SDS011;8322;-33.900;151.170;2023-05-02T00:58:55;2.60;;;1.33;;
16426;SDS011;8322;-33.900;151.170;2023-05-02T01:01:28;1.73;;;1.42;;
16426;SDS011;8322;-33.900;151.170;2023-05-02T01:04:05;2.47;;;1.63;;
16426;SDS011;8322;-33.900;151.170;2023-05-02T01:06:40;2.15;;;1.60;;
16426;SDS011;8322;-33.900;151.170;2023-05-02T01:09:21;1.30;;;1.20;;
16426;SDS011;8322;-33.900;151.170;2023-05-02T01:11:57;4.35;;;1.40;;
16426;SDS011;8322;-33.900;151.170;2023-05-02T01:14:30;2.28;;;1.40;;
16426;SDS011;8322;-33.900;151.170;2023-05-02T01:17:04;1.52;;;1.10;;
16426;SDS011;8322;-33.900;151.170;2023-05-02T01:19:35;2.45;;;1.50;;
16426;SDS011;8322;-33.900;151.170;2023-05-02T01:22:05;4.53;;;1.60;;
16426;SDS011;8322;-33.900;151.170;2023-05-02T01:24:36;2.33;;;1.58;;
16426;SDS011;8322;-33.900;151.170;2023-05-02T01:27:10;3.58;;;1.55;;
16426;SDS011;8322;-33.900;151.170;2023-05-02T01:29:45;1.50;;;1.40;;
16426;SDS011;8322;-33.900;151.170;2023-05-02T01:32:16;3.63;;;2.00;;
16426;SDS011;8322;-33.900;151.170;2023-05-02T01:34:48;3.63;;;1.77;;
16426;SDS011;8322;-33.900;151.170;2023-05-02T01:37:18;3.58;;;1.60;;
16426;SDS011;8322;-33.900;151.170;2023-05-02T01:39:47;1.70;;;1.48;;
16426;SDS011;8322;-33.900;151.170;2023-05-02T01:42:17;1.80;;;1.30;;
16426;SDS011;8322;-33.900;151.170;2023-05-02T01:44:52;1.80;;;1.30;;
16426;SDS011;8322;-33.900;151.170;2023-05-02T01:47:22;1.70;;;1.50;;
16426;SDS011;8322;-33.900;151.170;2023-05-02T01:49:53;1.40;;;1.30;;
16426;SDS011;8322;-33.900;151.170;2023-05-02T01:52:22;3.08;;;1.60;;
16426;SDS011;8322;-33.900;151.170;2023-05-02T01:54:53;3.05;;;1.48;;
16426;SDS011;8322;-33.900;151.170;2023-05-02T01:57:25;1.60;;;1.30;;
16426;SDS011;8322;-33.900;151.170;2023-05-02T01:59:57;2.17;;;1.50;;
16426;SDS011;8322;-33.900;151.170;2023-05-02T02:02:26;4.32;;;1.50;;
16426;SDS011;8322;-33.900;151.170;2023-05-02T02:04:57;2.95;;;1.90;;
16426;SDS011;8322;-33.900;151.170;2023-05-02T02:07:27;8.80;;;4.40;;
16426;SDS011;8322;-33.900;151.170;2023-05-02T02:09:57;1.60;;;1.50;;
16426;SDS011;8322;-33.900;151.170;2023-05-02T02:12:27;1.63;;;1.45;;
16426;SDS011;8322;-33.900;151.170;2023-05-02T02:15:02;2.35;;;1.30;;
16426;SDS011;8322;-33.900;151.170;2023-05-02T02:17:35;2.30;;;1.60;;
16426;SDS011;8322;-33.900;151.170;2023-05-02T02:20:05;3.88;;;2.00;;
16426;SDS011;8322;-33.900;151.170;2023-05-02T02:22:36;1.60;;;1.20;;
16426;SDS011;8322;-33.900;151.170;2023-05-02T02:25:07;2.15;;;1.50;;
16426;SDS011;8322;-33.900;151.170;2023-05-02T02:27:38;2.63;;;1.65;;
16426;SDS011;8322;-33.900;151.170;2023-05-02T02:30:08;1.50;;;1.30;;
16426;SDS011;8322;-33.900;151.170;2023-05-02T02:32:40;1.70;;;1.60;;
16426;SDS011;8322;-33.900;151.170;2023-05-02T02:35:09;1.75;;;1.30;;
16426;SDS011;8322;-33.900;151.170;2023-05-02T02:37:47;2.65;;;1.38;;
16426;SDS011;8322;-33.900;151.170;2023-05-02T02:40:20;1.90;;;1.33;;
16426;SDS011;8322;-33.900;151.170;2023-05-02T02:42:54;3.45;;;1.20;;
16426;SDS011;8322;-33.900;151.170;2023-05-02T02:45:29;2.22;;;1.27;;
16426;SDS011;8322;-33.900;151.170;2023-05-02T02:48:07;5.53;;;1.95;;
16426;SDS011;8322;-33.900;151.170;2023-05-02T02:50:57;1.98;;;1.27;;
16426;SDS011;8322;-33.900;151.170;2023-05-02T02:53:32;1.35;;;1.10;;
16426;SDS011;8322;-33.900;151.170;2023-05-02T02:56:03;1.70;;;1.33;;
16426;SDS011;8322;-33.900;151.170;2023-05-02T03:04:43;1.42;;;1.10;;
16426;SDS011;8322;-33.900;151.170;2023-05-02T03:07:14;1.85;;;1.30;;
16426;SDS011;8322;-33.900;151.170;2023-05-02T03:09:44;1.25;;;1.10;;
16426;SDS011;8322;-33.900;151.170;2023-05-02T03:12:14;2.45;;;1.30;;
16426;SDS011;8322;-33.900;151.170;2023-05-02T03:14:43;1.27;;;1.00;;
16426;SDS011;8322;-33.900;151.170;2023-05-02T03:20:19;1.23;;;1.05;;
16426;SDS011;8322;-33.900;151.170;2023-05-02T03:22:48;1.95;;;1.20;;
16426;SDS011;8322;-33.900;151.170;2023-05-02T03:31:28;1.33;;;0.90;;
16426;SDS011;8322;-33.900;151.170;2023-05-02T03:33:58;0.95;;;0.70;;
16426;SDS011;8322;-33.900;151.170;2023-05-02T03:36:29;0.95;;;0.70;;
16426;SDS011;8322;-33.900;151.170;2023-05-02T03:38:59;1.20;;;1.00;;
16426;SDS011;8322;-33.900;151.170;2023-05-02T03:41:29;1.23;;;0.90;;
16426;SDS011;8322;-33.900;151.170;2023-05-02T03:43:58;1.38;;;1.00;;
16426;SDS011;8322;-33.900;151.170;2023-05-02T03:46:28;1.50;;;0.90;;
16426;SDS011;8322;-33.900;151.170;2023-05-02T03:48:58;2.03;;;1.05;;
16426;SDS011;8322;-33.900;151.170;2023-05-02T03:51:29;1.27;;;0.98;;
16426;SDS011;8322;-33.900;151.170;2023-05-02T03:54:00;0.95;;;0.70;;
16426;SDS011;8322;-33.900;151.170;2023-05-02T03:56:30;1.15;;;0.80;;
16426;SDS011;8322;-33.900;151.170;2023-05-02T03:58:59;1.15;;;0.80;;
16426;SDS011;8322;-33.900;151.170;2023-05-02T04:01:32;2.15;;;1.00;;
16426;SDS011;8322;-33.900;151.170;2023-05-02T04:04:01;0.75;;;0.75;;
16426;SDS011;8322;-33.900;151.170;2023-05-02T04:06:33;0.70;;;0.70;;
16426;SDS011;8322;-33.900;151.170;2023-05-02T04:09:03;1.10;;;1.00;;
16426;SDS011;8322;-33.900;151.170;2023-05-02T04:11:32;0.70;;;0.70;;
16426;SDS011;8322;-33.900;151.170;2023-05-02T04:14:02;1.80;;;1.25;;
16426;SDS011;8322;-33.900;151.170;2023-05-02T04:16:32;1.75;;;1.30;;
16426;SDS011;8322;-33.900;151.170;2023-05-02T04:19:01;1.25;;;0.93;;
16426;SDS011;8322;-33.900;151.170;2023-05-02T04:21:37;2.90;;;1.48;;
16426;SDS011;8322;-33.900;151.170;2023-05-02T04:24:07;2.88;;;0.85;;
16426;SDS011;8322;-33.900;151.170;2023-05-02T04:26:37;0.93;;;0.85;;
16426;SDS011;8322;-33.900;151.170;2023-05-02T04:29:06;1.42;;;0.70;;
16426;SDS011;8322;-33.900;151.170;2023-05-02T04:31:36;1.50;;;0.90;;
16426;SDS011;8322;-33.900;151.170;2023-05-02T04:34:06;1.13;;;0.80;;
16426;SDS011;8322;-33.900;151.170;2023-05-02T04:36:37;1.58;;;0.70;;
16426;SDS011;8322;-33.900;151.170;2023-05-02T04:39:07;2.25;;;1.10;;
16426;SDS011;8322;-33.900;151.170;2023-05-02T04:41:37;2.22;;;0.90;;
16426;SDS011;8322;-33.900;151.170;2023-05-02T04:44:06;0.90;;;0.90;;
16426;SDS011;8322;-33.900;151.170;2023-05-02T04:46:36;1.67;;;1.00;;
16426;SDS011;8322;-33.900;151.170;2023-05-02T04:49:06;1.73;;;0.80;;
16426;SDS011;8322;-33.900;151.170;2023-05-02T04:51:35;1.02;;;0.98;;
16426;SDS011;8322;-33.900;151.170;2023-05-02T04:54:06;1.05;;;1.00;;
16426;SDS011;8322;-33.900;151.170;2023-05-02T04:56:36;1.20;;;1.10;;
16426;SDS011;8322;-33.900;151.170;2023-05-02T04:59:05;1.45;;;0.98;;
16426;SDS011;8322;-33.900;151.170;2023-05-02T05:01:35;2.38;;;1.25;;
16426;SDS011;8322;-33.900;151.170;2023-05-02T05:04:04;1.50;;;1.27;;
16426;SDS011;8322;-33.900;151.170;2023-05-02T05:06:34;1.38;;;1.20;;
16426;SDS011;8322;-33.900;151.170;2023-05-02T05:09:03;1.60;;;1.42;;
16426;SDS011;8322;-33.900;151.170;2023-05-02T05:11:35;1.38;;;0.80;;
16426;SDS011;8322;-33.900;151.170;2023-05-02T05:14:07;0.95;;;0.82;;
16426;SDS011;8322;-33.900;151.170;2023-05-02T05:16:37;1.10;;;0.98;;
16426;SDS011;8322;-33.900;151.170;2023-05-02T05:19:06;2.17;;;1.00;;
16426;SDS011;8322;-33.900;151.170;2023-05-02T05:21:36;2.28;;;1.27;;
16426;SDS011;8322;-33.900;151.170;2023-05-02T05:24:06;1.27;;;1.00;;
16426;SDS011;8322;-33.900;151.170;2023-05-02T05:26:37;1.05;;;0.95;;
16426;SDS011;8322;-33.900;151.170;2023-05-02T05:29:07;2.42;;;0.90;;
16426;SDS011;8322;-33.900;151.170;2023-05-02T05:31:36;1.67;;;0.82;;
16426;SDS011;8322;-33.900;151.170;2023-05-02T05:34:06;1.27;;;0.70;;
16426;SDS011;8322;-33.900;151.170;2023-05-02T05:36:36;0.80;;;0.70;;
16426;SDS011;8322;-33.900;151.170;2023-05-02T05:39:05;1.05;;;0.60;;
16426;SDS011;8322;-33.900;151.170;2023-05-02T05:41:38;1.27;;;0.60;;
16426;SDS011;8322;-33.900;151.170;2023-05-02T05:44:07;0.70;;;0.70;;
16426;SDS011;8322;-33.900;151.170;2023-05-02T05:46:37;0.80;;;0.80;;
16426;SDS011;8322;-33.900;151.170;2023-05-02T05:49:06;1.38;;;0.90;;
16426;SDS011;8322;-33.900;151.170;2023-05-02T05:51:36;1.20;;;0.90;;
16426;SDS011;8322;-33.900;151.170;2023-05-02T05:54:06;0.70;;;0.70;;
16426;SDS011;8322;-33.900;151.170;2023-05-02T05:56:38;2.10;;;0.70;;
16426;SDS011;8322;-33.900;151.170;2023-05-02T05:59:07;0.82;;;0.70;;
16426;SDS011;8322;-33.900;151.170;2023-05-02T06:01:36;0.90;;;0.70;;
16426;SDS011;8322;-33.900;151.170;2023-05-02T06:04:06;0.77;;;0.70;;
16426;SDS011;8322;-33.900;151.170;2023-05-02T06:06:36;0.70;;;0.70;;
16426;SDS011;8322;-33.900;151.170;2023-05-02T06:09:05;1.00;;;0.60;;
16426;SDS011;8322;-33.900;151.170;2023-05-02T06:11:37;1.13;;;0.75;;
16426;SDS011;8322;-33.900;151.170;2023-05-02T06:14:07;3.13;;;2.20;;
16426;SDS011;8322;-33.900;151.170;2023-05-02T06:16:36;2.70;;;1.30;;
16426;SDS011;8322;-33.900;151.170;2023-05-02T06:19:06;1.95;;;0.82;;
16426;SDS011;8322;-33.900;151.170;2023-05-02T06:21:35;1.50;;;0.60;;
16426;SDS011;8322;-33.900;151.170;2023-05-02T06:24:05;1.02;;;0.80;;
16426;SDS011;8322;-33.900;151.170;2023-05-02T06:26:34;0.63;;;0.60;;
16426;SDS011;8322;-33.900;151.170;2023-05-02T06:29:06;0.95;;;0.70;;
16426;SDS011;8322;-33.900;151.170;2023-05-02T06:31:35;0.73;;;0.70;;
16426;SDS011;8322;-33.900;151.170;2023-05-02T06:34:05;0.93;;;0.65;;
16426;SDS011;8322;-33.900;151.170;2023-05-02T06:36:34;1.33;;;0.68;;
16426;SDS011;8322;-33.900;151.170;2023-05-02T06:39:04;1.75;;;0.70;;
16426;SDS011;8322;-33.900;151.170;2023-05-02T06:41:33;1.02;;;0.60;;
16426;SDS011;8322;-33.900;151.170;2023-05-02T06:44:03;0.70;;;0.50;;
16426;SDS011;8322;-33.900;151.170;2023-05-02T06:46:34;1.35;;;0.80;;
16426;SDS011;8322;-33.900;151.170;2023-05-02T06:49:04;1.95;;;0.60;;
16426;SDS011;8322;-33.900;151.170;2023-05-02T06:51:36;0.60;;;0.60;;
16426;SDS011;8322;-33.900;151.170;2023-05-02T06:54:05;1.00;;;0.60;;
16426;SDS011;8322;-33.900;151.170;2023-05-02T06:56:35;0.60;;;0.50;;
16426;SDS011;8322;-33.900;151.170;2023-05-02T06:59:04;1.20;;;0.70;;
16426;SDS011;8322;-33.900;151.170;2023-05-02T07:01:36;1.30;;;0.60;;
16426;SDS011;8322;-33.900;151.170;2023-05-02T07:04:05;1.90;;;1.10;;
16426;SDS011;8322;-33.900;151.170;2023-05-02T07:06:35;12.02;;;6.25;;
16426;SDS011;8322;-33.900;151.170;2023-05-02T07:09:04;7.22;;;5.10;;
16426;SDS011;8322;-33.900;151.170;2023-05-02T07:11:34;5.07;;;4.57;;
16426;SDS011;8322;-33.900;151.170;2023-05-02T07:14:03;4.50;;;4.10;;
16426;SDS011;8322;-33.900;151.170;2023-05-02T07:16:33;2.97;;;2.20;;
16426;SDS011;8322;-33.900;151.170;2023-05-02T07:19:04;1.67;;;1.58;;
16426;SDS011;8322;-33.900;151.170;2023-05-02T07:21:34;1.33;;;0.80;;
16426;SDS011;8322;-33.900;151.170;2023-05-02T07:24:03;1.48;;;1.10;;
16426;SDS011;8322;-33.900;151.170;2023-05-02T07:26:33;1.17;;;0.88;;
16426;SDS011;8322;-33.900;151.170;2023-05-02T07:29:02;1.85;;;1.50;;
16426;SDS011;8322;-33.900;151.170;2023-05-02T07:31:33;1.20;;;1.10;;
16426;SDS011;8322;-33.900;151.170;2023-05-02T07:34:05;2.08;;;1.45;;
16426;SDS011;8322;-33.900;151.170;2023-05-02T07:36:34;2.08;;;1.45;;
16426;SDS011;8322;-33.900;151.170;2023-05-02T07:39:04;1.45;;;0.80;;
16426;SDS011;8322;-33.900;151.170;2023-05-02T07:41:33;1.42;;;0.60;;
16426;SDS011;8322;-33.900;151.170;2023-05-02T07:44:02;0.80;;;0.80;;
16426;SDS011;8322;-33.900;151.170;2023-05-02T07:46:32;1.95;;;0.90;;
16426;SDS011;8322;-33.900;151.170;2023-05-02T07:49:01;1.55;;;1.25;;
16426;SDS011;8322;-33.900;151.170;2023-05-02T07:51:33;1.52;;;1.25;;
16426;SDS011;8322;-33.900;151.170;2023-05-02T07:54:13;1.50;;;1.40;;
16426;SDS011;8322;-33.900;151.170;2023-05-02T07:56:43;3.00;;;1.20;;
16426;SDS011;8322;-33.900;151.170;2023-05-02T07:59:13;1.60;;;1.30;;
16426;SDS011;8322;-33.900;151.170;2023-05-02T08:01:42;1.45;;;1.20;;
16426;SDS011;8322;-33.900;151.170;2023-05-02T08:04:11;2.75;;;1.98;;
16426;SDS011;8322;-33.900;151.170;2023-05-02T08:06:43;3.25;;;2.70;;
16426;SDS011;8322;-33.900;151.170;2023-05-02T08:09:12;3.35;;;2.90;;
16426;SDS011;8322;-33.900;151.170;2023-05-02T08:11:42;2.38;;;1.85;;
16426;SDS011;8322;-33.900;151.170;2023-05-02T08:14:11;1.83;;;1.40;;
16426;SDS011;8322;-33.900;151.170;2023-05-02T08:16:41;1.80;;;1.00;;
16426;SDS011;8322;-33.900;151.170;2023-05-02T08:19:10;1.73;;;1.20;;
16426;SDS011;8322;-33.900;151.170;2023-05-02T08:21:40;1.20;;;1.10;;
16426;SDS011;8322;-33.900;151.170;2023-05-02T08:24:11;1.45;;;1.10;;
16426;SDS011;8322;-33.900;151.170;2023-05-02T08:26:40;1.50;;;1.20;;
16426;SDS011;8322;-33.900;151.170;2023-05-02T08:29:10;1.15;;;0.90;;
16426;SDS011;8322;-33.900;151.170;2023-05-02T08:31:39;1.20;;;1.00;;
16426;SDS011;8322;-33.900;151.170;2023-05-02T08:34:09;1.35;;;1.00;;
16426;SDS011;8322;-33.900;151.170;2023-05-02T08:36:38;1.58;;;1.00;;
16426;SDS011;8322;-33.900;151.170;2023-05-02T08:39:08;1.55;;;0.90;;
16426;SDS011;8322;-33.900;151.170;2023-05-02T08:41:39;1.77;;;1.00;;
16426;SDS011;8322;-33.900;151.170;2023-05-02T08:44:10;0.80;;;0.75;;
16426;SDS011;8322;-33.900;151.170;2023-05-02T08:46:40;1.45;;;0.82;;
16426;SDS011;8322;-33.900;151.170;2023-05-02T08:49:10;0.98;;;0.80;;
16426;SDS011;8322;-33.900;151.170;2023-05-02T08:51:39;0.88;;;0.60;;
16426;SDS011;8322;-33.900;151.170;2023-05-02T08:54:09;0.75;;;0.60;;
16426;SDS011;8322;-33.900;151.170;2023-05-02T08:56:40;0.95;;;0.70;;
16426;SDS011;8322;-33.900;151.170;2023-05-02T08:59:10;0.60;;;0.60;;
16426;SDS011;8322;-33.900;151.170;2023-05-02T09:01:39;0.60;;;0.60;;
16426;SDS011;8322;-33.900;151.170;2023-05-02T09:04:09;0.88;;;0.70;;
16426;SDS011;8322;-33.900;151.170;2023-05-02T09:06:39;0.70;;;0.70;;
16426;SDS011;8322;-33.900;151.170;2023-05-02T09:09:09;0.63;;;0.63;;
16426;SDS011;8322;-33.900;151.170;2023-05-02T09:11:40;0.80;;;0.70;;
16426;SDS011;8322;-33.900;151.170;2023-05-02T09:14:13;1.38;;;0.90;;
16426;SDS011;8322;-33.900;151.170;2023-05-02T09:16:43;1.67;;;0.73;;
16426;SDS011;8322;-33.900;151.170;2023-05-02T09:19:12;1.08;;;0.70;;
16426;SDS011;8322;-33.900;151.170;2023-05-02T09:21:51;2.00;;;1.83;;
16426;SDS011;8322;-33.900;151.170;2023-05-02T09:24:21;1.88;;;1.20;;
16426;SDS011;8322;-33.900;151.170;2023-05-02T09:26:59;1.15;;;1.00;;
16426;SDS011;8322;-33.900;151.170;2023-05-02T09:29:29;1.95;;;1.10;;
16426;SDS011;8322;-33.900;151.170;2023-05-02T09:32:03;2.10;;;0.90;;
16426;SDS011;8322;-33.900;151.170;2023-05-02T09:34:33;0.80;;;0.80;;
16426;SDS011;8322;-33.900;151.170;2023-05-02T09:37:04;0.95;;;0.90;;
16426;SDS011;8322;-33.900;151.170;2023-05-02T09:39:33;1.20;;;1.08;;
16426;SDS011;8322;-33.900;151.170;2023-05-02T09:42:05;2.53;;;1.27;;
16426;SDS011;8322;-33.900;151.170;2023-05-02T09:44:37;2.22;;;1.50;;
16426;SDS011;8322;-33.900;151.170;2023-05-02T09:47:08;1.52;;;1.40;;
16426;SDS011;8322;-33.900;151.170;2023-05-02T09:49:40;2.67;;;1.48;;
16426;SDS011;8322;-33.900;151.170;2023-05-02T09:52:11;1.42;;;1.30;;
16426;SDS011;8322;-33.900;151.170;2023-05-02T09:54:41;1.70;;;1.40;;
16426;SDS011;8322;-33.900;151.170;2023-05-02T09:57:13;1.50;;;1.20;;
16426;SDS011;8322;-33.900;151.170;2023-05-02T09:59:52;1.42;;;1.10;;
16426;SDS011;8322;-33.900;151.170;2023-05-02T10:02:22;1.40;;;0.98;;
16426;SDS011;8322;-33.900;151.170;2023-05-02T10:04:52;1.10;;;0.90;;
16426;SDS011;8322;-33.900;151.170;2023-05-02T10:07:23;2.08;;;0.90;;
16426;SDS011;8322;-33.900;151.170;2023-05-02T10:09:53;1.15;;;1.00;;
16426;SDS011;8322;-33.900;151.170;2023-05-02T10:12:28;1.27;;;1.00;;
16426;SDS011;8322;-33.900;151.170;2023-05-02T10:14:59;1.02;;;0.80;;
16426;SDS011;8322;-33.900;151.170;2023-05-02T10:17:32;1.45;;;1.15;;
16426;SDS011;8322;-33.900;151.170;2023-05-02T10:20:04;0.88;;;0.88;;
16426;SDS011;8322;-33.900;151.170;2023-05-02T10:22:34;0.80;;;0.80;;
16426;SDS011;8322;-33.900;151.170;2023-05-02T10:25:04;1.50;;;0.90;;
16426;SDS011;8322;-33.900;151.170;2023-05-02T10:27:53;1.48;;;0.80;;
16426;SDS011;8322;-33.900;151.170;2023-05-02T10:30:27;0.93;;;0.80;;
16426;SDS011;8322;-33.900;151.170;2023-05-02T10:32:56;1.73;;;0.90;;
16426;SDS011;8322;-33.900;151.170;2023-05-02T10:35:27;0.60;;;0.60;;
16426;SDS011;8322;-33.900;151.170;2023-05-02T11:02:49;1.30;;;0.80;;
16426;SDS011;8322;-33.900;151.170;2023-05-02T11:05:18;0.80;;;0.80;;
16426;SDS011;8322;-33.900;151.170;2023-05-02T11:07:48;1.23;;;0.80;;
16426;SDS011;8322;-33.900;151.170;2023-05-02T11:10:25;1.67;;;0.98;;
16426;SDS011;8322;-33.900;151.170;2023-05-02T11:12:55;0.77;;;0.70;;
16426;SDS011;8322;-33.900;151.170;2023-05-02T11:18:14;1.02;;;0.95;;
16426;SDS011;8322;-33.900;151.170;2023-05-02T11:20:44;0.98;;;0.70;;
16426;SDS011;8322;-33.900;151.170;2023-05-02T11:23:20;0.70;;;0.65;;
16426;SDS011;8322;-33.900;151.170;2023-05-02T11:25:51;1.50;;;0.60;;
16426;SDS011;8322;-33.900;151.170;2023-05-02T11:28:39;1.60;;;0.80;;
16426;SDS011;8322;-33.900;151.170;2023-05-02T11:31:51;1.88;;;0.82;;
16426;SDS011;8322;-33.900;151.170;2023-05-02T11:34:01;0.82;;;0.70;;
16426;SDS011;8322;-33.900;151.170;2023-05-02T11:36:31;1.77;;;0.90;;
16426;SDS011;8322;-33.900;151.170;2023-05-02T11:39:01;1.15;;;0.82;;
16426;SDS011;8322;-33.900;151.170;2023-05-02T11:41:37;2.40;;;1.02;;
16426;SDS011;8322;-33.900;151.170;2023-05-02T11:44:07;1.63;;;0.98;;
16426;SDS011;8322;-33.900;151.170;2023-05-02T11:46:36;1.30;;;0.93;;
16426;SDS011;8322;-33.900;151.170;2023-05-02T11:49:08;3.80;;;1.80;;
16426;SDS011;8322;-33.900;151.170;2023-05-02T11:51:38;3.00;;;0.95;;
16426;SDS011;8322;-33.900;151.170;2023-05-02T11:54:08;2.05;;;1.35;;
16426;SDS011;8322;-33.900;151.170;2023-05-02T11:56:38;2.20;;;1.40;;
16426;SDS011;8322;-33.900;151.170;2023-05-02T11:59:07;1.67;;;1.10;;
16426;SDS011;8322;-33.900;151.170;2023-05-02T12:01:37;1.60;;;1.00;;
16426;SDS011;8322;-33.900;151.170;2023-05-02T12:04:17;2.67;;;1.25;;
16426;SDS011;8322;-33.900;151.170;2023-05-02T12:06:55;1.55;;;0.90;;
16426;SDS011;8322;-33.900;151.170;2023-05-02T12:09:24;1.30;;;0.90;;
16426;SDS011;8322;-33.900;151.170;2023-05-02T12:11:54;1.58;;;1.10;;
16426;SDS011;8322;-33.900;151.170;2023-05-02T12:14:27;1.48;;;0.98;;
16426;SDS011;8322;-33.900;151.170;2023-05-02T12:16:58;1.25;;;0.80;;
16426;SDS011;8322;-33.900;151.170;2023-05-02T12:19:30;2.20;;;0.80;;
16426;SDS011;8322;-33.900;151.170;2023-05-02T12:22:02;1.10;;;0.82;;
16426;SDS011;8322;-33.900;151.170;2023-05-02T12:24:32;1.23;;;0.90;;
16426;SDS011;8322;-33.900;151.170;2023-05-02T12:33:10;2.40;;;1.00;;
16426;SDS011;8322;-33.900;151.170;2023-05-02T12:35:41;1.52;;;0.90;;
16426;SDS011;8322;-33.900;151.170;2023-05-02T12:38:16;2.85;;;0.95;;
16426;SDS011;8322;-33.900;151.170;2023-05-02T12:40:48;0.80;;;0.80;;
16426;SDS011;8322;-33.900;151.170;2023-05-02T12:43:18;1.42;;;0.90;;
16426;SDS011;8322;-33.900;151.170;2023-05-02T12:45:48;1.50;;;1.00;;
16426;SDS011;8322;-33.900;151.170;2023-05-02T12:48:23;0.80;;;0.80;;
16426;SDS011;8322;-33.900;151.170;2023-05-02T13:03:09;2.03;;;1.30;;
16426;SDS011;8322;-33.900;151.170;2023-05-02T13:05:38;1.75;;;1.10;;
16426;SDS011;8322;-33.900;151.170;2023-05-02T13:08:08;2.38;;;1.15;;
16426;SDS011;8322;-33.900;151.170;2023-05-02T13:10:38;2.00;;;1.13;;
16426;SDS011;8322;-33.900;151.170;2023-05-02T13:13:07;2.22;;;1.30;;
16426;SDS011;8322;-33.900;151.170;2023-05-02T13:15:37;1.90;;;1.30;;
16426;SDS011;8322;-33.900;151.170;2023-05-02T13:18:06;2.53;;;1.30;;
16426;SDS011;8322;-33.900;151.170;2023-05-02T13:20:37;2.45;;;1.38;;
16426;SDS011;8322;-33.900;151.170;2023-05-02T13:23:07;3.75;;;1.50;;
16426;SDS011;8322;-33.900;151.170;2023-05-02T13:25:37;1.88;;;1.35;;
16426;SDS011;8322;-33.900;151.170;2023-05-02T13:28:06;4.03;;;1.40;;
16426;SDS011;8322;-33.900;151.170;2023-05-02T13:30:36;1.85;;;1.40;;
16426;SDS011;8322;-33.900;151.170;2023-05-02T13:33:06;2.90;;;1.30;;
16426;SDS011;8322;-33.900;151.170;2023-05-02T13:35:38;3.45;;;1.70;;
16426;SDS011;8322;-33.900;151.170;2023-05-02T13:38:07;2.47;;;1.70;;
16426;SDS011;8322;-33.900;151.170;2023-05-02T13:40:37;3.17;;;1.60;;
16426;SDS011;8322;-33.900;151.170;2023-05-02T13:43:06;7.53;;;2.70;;
16426;SDS011;8322;-33.900;151.170;2023-05-02T13:45:36;4.82;;;2.13;;
16426;SDS011;8322;-33.900;151.170;2023-05-02T13:48:05;5.00;;;2.08;;
16426;SDS011;8322;-33.900;151.170;2023-05-02T13:50:35;4.78;;;2.03;;
16426;SDS011;8322;-33.900;151.170;2023-05-02T13:53:06;2.83;;;1.67;;
16426;SDS011;8322;-33.900;151.170;2023-05-02T13:55:36;4.75;;;2.13;;
16426;SDS011;8322;-33.900;151.170;2023-05-02T13:58:05;4.15;;;1.70;;
16426;SDS011;8322;-33.900;151.170;2023-05-02T14:00:35;4.30;;;2.05;;
16426;SDS011;8322;-33.900;151.170;2023-05-02T14:03:04;3.38;;;1.65;;
16426;SDS011;8322;-33.900;151.170;2023-05-02T14:05:36;4.78;;;2.53;;
16426;SDS011;8322;-33.900;151.170;2023-05-02T14:08:13;7.63;;;3.10;;
16426;SDS011;8322;-33.900;151.170;2023-05-02T14:10:44;6.00;;;2.67;;
16426;SDS011;8322;-33.900;151.170;2023-05-02T14:13:13;4.90;;;2.20;;
16426;SDS011;8322;-33.900;151.170;2023-05-02T14:15:43;3.28;;;1.80;;
16426;SDS011;8322;-33.900;151.170;2023-05-02T14:18:12;2.60;;;1.60;;
16426;SDS011;8322;-33.900;151.170;2023-05-02T14:20:41;5.50;;;1.85;;
16426;SDS011;8322;-33.900;151.170;2023-05-02T14:23:13;4.53;;;1.83;;
16426;SDS011;8322;-33.900;151.170;2023-05-02T14:25:42;3.53;;;1.40;;
16426;SDS011;8322;-33.900;151.170;2023-05-02T14:28:12;2.42;;;1.60;;
16426;SDS011;8322;-33.900;151.170;2023-05-02T14:30:41;3.03;;;1.55;;
16426;SDS011;8322;-33.900;151.170;2023-05-02T14:33:11;5.22;;;1.30;;
16426;SDS011;8322;-33.900;151.170;2023-05-02T14:35:43;2.65;;;1.55;;
16426;SDS011;8322;-33.900;151.170;2023-05-02T14:38:14;3.20;;;1.50;;
16426;SDS011;8322;-33.900;151.170;2023-05-02T14:40:46;2.50;;;1.27;;
16426;SDS011;8322;-33.900;151.170;2023-05-02T14:43:16;1.77;;;1.20;;
16426;SDS011;8322;-33.900;151.170;2023-05-02T14:45:45;1.85;;;1.30;;
16426;SDS011;8322;-33.900;151.170;2023-05-02T14:48:15;2.30;;;1.20;;
16426;SDS011;8322;-33.900;151.170;2023-05-02T14:50:47;1.45;;;1.30;;
16426;SDS011;8322;-33.900;151.170;2023-05-02T14:56:20;1.30;;;1.20;;
16426;SDS011;8322;-33.900;151.170;2023-05-02T14:58:50;3.17;;;1.30;;
16426;SDS011;8322;-33.900;151.170;2023-05-02T15:01:20;1.80;;;1.10;;
16426;SDS011;8322;-33.900;151.170;2023-05-02T15:03:50;1.13;;;1.02;;
16426;SDS011;8322;-33.900;151.170;2023-05-02T15:06:20;1.50;;;1.17;;
16426;SDS011;8322;-33.900;151.170;2023-05-02T15:08:53;0.80;;;0.80;;
16426;SDS011;8322;-33.900;151.170;2023-05-02T15:11:24;2.05;;;0.93;;
16426;SDS011;8322;-33.900;151.170;2023-05-02T15:13:53;2.42;;;1.20;;
16426;SDS011;8322;-33.900;151.170;2023-05-02T15:16:23;1.45;;;1.02;;
16426;SDS011;8322;-33.900;151.170;2023-05-02T15:18:57;1.30;;;1.00;;
16426;SDS011;8322;-33.900;151.170;2023-05-02T15:21:28;1.80;;;1.10;;
16426;SDS011;8322;-33.900;151.170;2023-05-02T15:23:57;1.40;;;1.20;;
16426;SDS011;8322;-33.900;151.170;2023-05-02T15:26:29;1.85;;;1.10;;
16426;SDS011;8322;-33.900;151.170;2023-05-02T15:28:58;3.08;;;1.35;;
16426;SDS011;8322;-33.900;151.170;2023-05-02T15:31:28;2.13;;;1.40;;
16426;SDS011;8322;-33.900;151.170;2023-05-02T15:33:58;2.25;;;1.10;;
16426;SDS011;8322;-33.900;151.170;2023-05-02T15:36:28;1.92;;;1.10;;
16426;SDS011;8322;-33.900;151.170;2023-05-02T15:38:57;1.00;;;0.90;;
16426;SDS011;8322;-33.900;151.170;2023-05-02T15:41:28;1.00;;;0.90;;
16426;SDS011;8322;-33.900;151.170;2023-05-02T15:43:58;1.23;;;1.00;;
16426;SDS011;8322;-33.900;151.170;2023-05-02T15:46:27;1.50;;;1.10;;